Time;durP1;ratioP1;P1;durP2;ratioP2;P2;SDS_P1;SDS_P2;PMS_P1;PMS_P2;Temp;Humidity;BMP_temperature;BMP_pressure;BME280_temperature;BME280_humidity;BME280_pressure;Samples;Min_cycle;Max_cycle;Signal;HPM_P1;HPM_P2
2022/03/22 00:02:52;;;;;;;29.50;15.43;;;;;;;;;;10342027;28;20902;-78
2022/03/22 00:07:54;;;;;;;23.00;14.57;;;;;;;;;;10345272;28;20284;-77
2022/03/22 00:12:55;;;;;;;26.60;15.20;;;;;;;;;;10347525;28;20596;-78
2022/03/22 00:17:56;;;;;;;27.10;16.00;;;;;;;;;;10345057;28;20292;-75
2022/03/22 00:22:58;;;;;;;22.53;14.27;;;;;;;;;;10348215;28;20816;-76
2022/03/22 00:28:01;;;;;;;25.00;15.23;;;;;;;;;;10344928;28;20212;-76
2022/03/22 00:33:03;;;;;;;20.70;14.33;;;;;;;;;;10343489;28;20215;-76
2022/03/22 00:38:06;;;;;;;24.37;14.50;;;;;;;;;;10348858;28;20219;-76
2022/03/22 00:43:07;;;;;;;26.75;14.40;;;;;;;;;;10344922;28;20228;-75
2022/03/22 00:48:12;;;;;;;25.10;15.33;;;;;;;;;;10345140;28;20216;-77
2022/03/22 00:53:13;;;;;;;26.73;14.47;;;;;;;;;;10343781;28;20204;-76
2022/03/22 00:58:14;;;;;;;29.13;14.00;;;;;;;;;;10342620;28;20196;-75
2022/03/22 01:03:15;;;;;;;19.30;12.93;;;;;;;;;;10346228;28;20220;-76
2022/03/22 01:08:17;;;;;;;22.67;13.23;;;;;;;;;;10346174;28;20262;-76
2022/03/22 01:13:19;;;;;;;21.87;13.77;;;;;;;;;;10345525;28;20372;-76
2022/03/22 01:18:23;;;;;;;25.40;13.47;;;;;;;;;;10345282;28;20208;-76
2022/03/22 01:23:24;;;;;;;22.77;13.63;;;;;;;;;;10342764;28;20211;-75
2022/03/22 01:28:26;;;;;;;24.70;13.53;;;;;;;;;;10342170;28;20203;-76
2022/03/22 01:33:27;;;;;;;22.37;13.23;;;;;;;;;;10340540;28;20231;-76
2022/03/22 01:38:29;;;;;;;19.80;12.03;;;;;;;;;;10343178;28;20304;-76
2022/03/22 01:43:30;;;;;;;22.13;12.97;;;;;;;;;;10343981;28;20318;-76
2022/03/22 01:48:31;;;;;;;23.70;13.90;;;;;;;;;;10346173;28;20282;-76
2022/03/22 01:53:36;;;;;;;23.77;13.80;;;;;;;;;;10341503;28;20220;-76
2022/03/22 01:58:37;;;;;;;22.33;14.43;;;;;;;;;;10342392;28;20603;-76
2022/03/22 02:09:03;;;;;;;21.43;14.23;;;;;;;;;;10338742;28;20992;-76
2022/03/22 02:14:05;;;;;;;23.03;14.00;;;;;;;;;;10339521;28;20587;-76
2022/03/22 02:19:09;;;;;;;25.23;14.87;;;;;;;;;;10342804;28;20212;-76
2022/03/22 02:24:10;;;;;;;23.93;14.53;;;;;;;;;;10339893;28;20649;-76
2022/03/22 02:29:11;;;;;;;23.80;13.83;;;;;;;;;;10345473;28;20239;-76
2022/03/22 02:34:12;;;;;;;23.87;14.03;;;;;;;;;;10346499;28;20667;-76
2022/03/22 02:39:13;;;;;;;21.90;13.53;;;;;;;;;;10348425;28;20200;-76
2022/03/22 02:44:14;;;;;;;23.37;14.47;;;;;;;;;;10348946;28;20209;-76
2022/03/22 02:49:15;;;;;;;19.53;13.60;;;;;;;;;;10347380;28;20271;-76
2022/03/22 02:54:16;;;;;;;25.13;12.93;;;;;;;;;;10347293;28;20282;-76
2022/03/22 02:59:17;;;;;;;25.90;13.90;;;;;;;;;;10346873;28;20750;-76
2022/03/22 03:04:18;;;;;;;22.40;14.20;;;;;;;;;;10343270;28;20218;-76
2022/03/22 03:09:20;;;;;;;27.37;15.03;;;;;;;;;;10346826;28;20287;-76
2022/03/22 03:14:39;;;;;;;21.70;13.47;;;;;;;;;;10344007;28;20216;-76
2022/03/22 03:19:41;;;;;;;26.60;14.73;;;;;;;;;;10344219;28;20193;-76
2022/03/22 03:24:42;;;;;;;22.00;13.17;;;;;;;;;;10346320;28;21172;-76
2022/03/22 03:29:43;;;;;;;26.60;13.90;;;;;;;;;;10345241;28;20200;-76
2022/03/22 03:34:44;;;;;;;18.93;13.27;;;;;;;;;;10341235;28;20591;-76
2022/03/22 03:39:46;;;;;;;25.50;14.23;;;;;;;;;;10343156;28;20225;-76
2022/03/22 03:50:08;;;;;;;24.40;13.00;;;;;;;;;;10343241;28;20212;-76
2022/03/22 03:55:10;;;;;;;21.63;12.53;;;;;;;;;;10343990;28;20696;-78
2022/03/22 04:00:12;;;;;;;21.90;13.60;;;;;;;;;;10343910;28;20287;-77
2022/03/22 04:05:13;;;;;;;22.93;13.47;;;;;;;;;;10341124;28;20229;-76
2022/03/22 04:10:14;;;;;;;23.50;13.73;;;;;;;;;;10344273;28;20220;-76
2022/03/22 04:15:15;;;;;;;19.50;12.50;;;;;;;;;;10341761;28;20204;-76
2022/03/22 04:20:17;;;;;;;19.50;12.13;;;;;;;;;;10340987;28;20294;-75
2022/03/22 04:25:19;;;;;;;20.93;12.70;;;;;;;;;;10343296;28;20209;-76
2022/03/22 04:35:40;;;;;;;17.60;11.47;;;;;;;;;;10343976;28;20212;-77
2022/03/22 04:40:42;;;;;;;20.27;12.70;;;;;;;;;;10341166;28;20220;-76
2022/03/22 04:45:44;;;;;;;21.30;13.53;;;;;;;;;;10343349;28;20539;-76
2022/03/22 04:50:45;;;;;;;21.37;12.23;;;;;;;;;;10339777;28;20682;-79
2022/03/22 05:01:10;;;;;;;21.47;12.00;;;;;;;;;;10311726;28;20208;-77
2022/03/22 05:06:27;;;;;;;22.40;12.43;;;;;;;;;;10339237;28;20201;-76
2022/03/22 05:11:28;;;;;;;22.33;12.70;;;;;;;;;;10341317;28;20302;-77
2022/03/22 05:16:35;;;;;;;20.17;12.43;;;;;;;;;;10340891;28;20236;-77
2022/03/22 05:21:36;;;;;;;19.20;11.87;;;;;;;;;;10345347;28;20196;-77
2022/03/22 05:26:37;;;;;;;17.67;11.20;;;;;;;;;;10338183;28;20200;-77
2022/03/22 05:31:39;;;;;;;24.90;12.77;;;;;;;;;;10341626;28;20223;-76
2022/03/22 05:36:40;;;;;;;21.50;13.03;;;;;;;;;;10339640;28;20259;-76
2022/03/22 05:41:42;;;;;;;18.40;12.13;;;;;;;;;;10342351;28;20590;-76
2022/03/22 05:46:43;;;;;;;31.77;13.60;;;;;;;;;;10343248;28;20226;-77
2022/03/22 05:51:44;;;;;;;20.50;12.43;;;;;;;;;;10341364;28;20204;-77
2022/03/22 05:56:45;;;;;;;21.33;12.93;;;;;;;;;;10341081;28;20205;-77
2022/03/22 06:01:47;;;;;;;19.60;12.10;;;;;;;;;;10377227;28;20225;-76
2022/03/22 06:06:48;;;;;;;19.33;12.80;;;;;;;;;;10350601;28;20203;-77
2022/03/22 06:11:49;;;;;;;22.03;12.80;;;;;;;;;;10347770;28;20228;-77
2022/03/22 06:16:50;;;;;;;19.17;12.37;;;;;;;;;;10346119;28;20207;-80
2022/03/22 06:21:51;;;;;;;19.47;11.93;;;;;;;;;;10344668;28;20196;-78
2022/03/22 06:26:52;;;;;;;21.43;13.50;;;;;;;;;;10345915;28;20219;-78
2022/03/22 06:31:53;;;;;;;19.47;12.37;;;;;;;;;;10347200;28;20241;-78
2022/03/22 06:36:54;;;;;;;22.60;12.90;;;;;;;;;;10342647;28;20212;-77
2022/03/22 06:41:55;;;;;;;19.23;12.93;;;;;;;;;;10348037;28;20232;-79
2022/03/22 06:46:56;;;;;;;19.83;11.77;;;;;;;;;;10344642;28;20876;-78
2022/03/22 06:51:57;;;;;;;27.50;12.43;;;;;;;;;;10344255;28;20211;-79
2022/03/22 06:56:58;;;;;;;20.73;11.30;;;;;;;;;;10349700;28;20255;-78
2022/03/22 07:02:00;;;;;;;16.90;10.75;;;;;;;;;;10350228;28;20299;-79
2022/03/22 07:07:01;;;;;;;15.85;10.35;;;;;;;;;;10349901;28;20288;-79
2022/03/22 07:12:02;;;;;;;15.90;10.48;;;;;;;;;;10354562;28;20619;-80
2022/03/22 07:17:03;;;;;;;15.23;9.90;;;;;;;;;;10354065;28;20196;-79
2022/03/22 07:22:05;;;;;;;15.93;10.90;;;;;;;;;;10353299;28;20758;-78
2022/03/22 07:27:06;;;;;;;17.67;10.65;;;;;;;;;;10344335;28;20629;-77
2022/03/22 07:32:07;;;;;;;14.85;10.00;;;;;;;;;;10346227;28;20806;-79
2022/03/22 07:37:08;;;;;;;14.85;11.00;;;;;;;;;;10345432;28;20203;-78
2022/03/22 07:42:09;;;;;;;16.92;10.25;;;;;;;;;;10347901;28;20304;-79
2022/03/22 07:47:11;;;;;;;14.30;10.40;;;;;;;;;;10347607;28;20294;-78
2022/03/22 07:57:32;;;;;;;19.15;10.65;;;;;;;;;;10355769;28;20207;-78
2022/03/22 08:02:36;;;;;;;19.90;10.88;;;;;;;;;;10352222;28;20222;-78
2022/03/22 08:07:37;;;;;;;16.42;11.23;;;;;;;;;;10356399;28;20208;-79
2022/03/22 08:12:38;;;;;;;16.10;11.15;;;;;;;;;;10357165;28;20600;-80
2022/03/22 08:17:42;;;;;;;16.20;11.57;;;;;;;;;;10355493;28;20200;-80
2022/03/22 08:22:53;;;;;;;15.18;11.05;;;;;;;;;;10353568;28;20216;-81
2022/03/22 08:27:55;;;;;;;14.50;11.07;;;;;;;;;;10355129;28;20299;-80
2022/03/22 08:33:03;;;;;;;11.73;10.50;;;;;;;;;;10350792;28;20267;-80
2022/03/22 08:38:04;;;;;;;14.73;10.70;;;;;;;;;;10349729;28;20201;-80
2022/03/22 08:43:07;;;;;;;13.98;9.90;;;;;;;;;;10350227;28;20894;-80
2022/03/22 08:48:12;;;;;;;13.85;10.35;;;;;;;;;;10349951;28;20206;-79
2022/03/22 08:53:14;;;;;;;15.57;10.40;;;;;;;;;;10351572;28;20212;-81
2022/03/22 08:58:16;;;;;;;13.20;10.85;;;;;;;;;;10350200;28;20201;-80
2022/03/22 09:03:19;;;;;;;14.15;9.82;;;;;;;;;;10349820;28;20650;-80
2022/03/22 09:08:20;;;;;;;18.38;10.32;;;;;;;;;;10350071;28;20219;-80
2022/03/22 09:13:21;;;;;;;12.85;10.27;;;;;;;;;;10349725;28;20306;-80
2022/03/22 09:18:22;;;;;;;13.90;10.98;;;;;;;;;;10380776;28;20208;-79
2022/03/22 09:23:24;;;;;;;13.02;10.52;;;;;;;;;;10347813;28;21012;-79
2022/03/22 09:28:25;;;;;;;14.00;10.13;;;;;;;;;;10347282;28;20288;-80
2022/03/22 09:33:26;;;;;;;23.00;11.15;;;;;;;;;;10346217;28;20319;-80
2022/03/22 09:38:28;;;;;;;12.32;9.98;;;;;;;;;;10341342;28;20223;-78
2022/03/22 09:43:29;;;;;;;13.63;10.00;;;;;;;;;;10341027;28;20270;-79
2022/03/22 09:48:33;;;;;;;13.10;10.55;;;;;;;;;;10338293;28;20204;-80
2022/03/22 09:53:34;;;;;;;13.63;9.88;;;;;;;;;;10338856;28;20300;-78
2022/03/22 09:58:36;;;;;;;12.18;10.15;;;;;;;;;;10342625;28;20223;-79
2022/03/22 10:03:37;;;;;;;13.32;9.85;;;;;;;;;;10341024;28;20231;-75
2022/03/22 10:08:38;;;;;;;12.20;9.48;;;;;;;;;;10339454;28;20642;-79
2022/03/22 10:13:51;;;;;;;13.52;9.55;;;;;;;;;;10345851;28;20583;-77
2022/03/22 10:18:53;;;;;;;11.70;9.30;;;;;;;;;;10345081;28;20229;-77
2022/03/22 10:23:55;;;;;;;13.38;9.63;;;;;;;;;;10343320;28;20215;-77
2022/03/22 10:28:57;;;;;;;10.25;9.35;;;;;;;;;;10341857;28;20240;-79
2022/03/22 10:33:58;;;;;;;10.48;9.38;;;;;;;;;;10339029;28;20711;-79
2022/03/22 10:38:59;;;;;;;11.57;8.55;;;;;;;;;;10345140;28;20909;-79
2022/03/22 10:44:05;;;;;;;10.20;9.18;;;;;;;;;;10364542;28;20270;-80
2022/03/22 10:49:08;;;;;;;10.30;9.05;;;;;;;;;;10358294;28;20196;-79
2022/03/22 10:54:12;;;;;;;10.55;8.85;;;;;;;;;;10357231;28;20204;-79
2022/03/22 10:59:14;;;;;;;10.13;9.23;;;;;;;;;;10355799;28;20200;-79
2022/03/22 11:04:16;;;;;;;9.00;8.20;;;;;;;;;;10357622;28;20779;-73
2022/03/22 11:09:18;;;;;;;9.82;8.73;;;;;;;;;;10338766;28;20200;-78
2022/03/22 11:14:19;;;;;;;9.55;8.65;;;;;;;;;;10353891;28;20227;-79
2022/03/22 11:19:22;;;;;;;9.55;8.82;;;;;;;;;;10347777;28;20196;-79
2022/03/22 11:24:25;;;;;;;9.85;8.50;;;;;;;;;;10354254;28;20236;-80
2022/03/22 11:29:26;;;;;;;8.90;8.30;;;;;;;;;;10352341;28;20265;-79
2022/03/22 11:34:27;;;;;;;8.80;8.02;;;;;;;;;;10349297;28;20228;-78
2022/03/22 11:45:03;;;;;;;8.60;7.90;;;;;;;;;;10347604;28;20250;-77
2022/03/22 11:50:05;;;;;;;8.05;7.50;;;;;;;;;;10377035;28;20527;-77
2022/03/22 11:55:06;;;;;;;9.80;8.98;;;;;;;;;;10345403;28;20227;-77
2022/03/22 12:00:07;;;;;;;9.00;8.10;;;;;;;;;;10345726;28;20946;-77
2022/03/22 12:05:08;;;;;;;8.85;8.02;;;;;;;;;;10348050;28;20370;-80
2022/03/22 12:10:11;;;;;;;9.18;8.27;;;;;;;;;;10342740;28;20219;-78
2022/03/22 12:15:12;;;;;;;8.63;8.00;;;;;;;;;;10343784;28;20341;-80
2022/03/22 12:20:14;;;;;;;9.90;9.02;;;;;;;;;;10348969;28;20208;-78
2022/03/22 12:25:17;;;;;;;9.15;8.48;;;;;;;;;;10346414;28;20212;-77
2022/03/22 12:30:20;;;;;;;12.02;8.25;;;;;;;;;;10344444;28;20216;-78
2022/03/22 12:35:21;;;;;;;9.50;8.55;;;;;;;;;;10344976;28;20199;-78
2022/03/22 12:40:22;;;;;;;8.60;7.75;;;;;;;;;;10346199;28;20699;-77
2022/03/22 12:45:24;;;;;;;7.85;7.15;;;;;;;;;;10341119;28;20798;-79
2022/03/22 12:50:27;;;;;;;7.80;7.30;;;;;;;;;;10337459;28;20208;-79
2022/03/22 12:55:28;;;;;;;8.07;7.38;;;;;;;;;;10341143;28;20208;-77
2022/03/22 13:00:38;;;;;;;8.25;7.65;;;;;;;;;;10343429;28;20207;-77
2022/03/22 13:05:41;;;;;;;7.82;7.22;;;;;;;;;;10344240;28;20229;-77
2022/03/22 13:16:02;;;;;;;8.88;8.13;;;;;;;;;;10342877;28;20205;-78
2022/03/22 13:21:04;;;;;;;8.85;8.10;;;;;;;;;;10342187;28;20209;-77
2022/03/22 13:26:14;;;;;;;10.23;9.30;;;;;;;;;;10340237;28;20185;-77
2022/03/22 13:31:21;;;;;;;9.15;8.45;;;;;;;;;;10337924;28;20311;-77
2022/03/22 13:36:22;;;;;;;14.45;8.55;;;;;;;;;;10338132;28;20296;-77
2022/03/22 13:41:24;;;;;;;9.48;8.88;;;;;;;;;;10339550;28;20298;-76
2022/03/22 13:46:25;;;;;;;9.30;8.38;;;;;;;;;;10344149;28;21021;-77
2022/03/22 13:51:29;;;;;;;9.07;8.38;;;;;;;;;;10347734;28;20222;-78
2022/03/22 13:56:30;;;;;;;8.35;7.65;;;;;;;;;;10350504;28;20239;-79
2022/03/22 14:01:33;;;;;;;8.85;8.25;;;;;;;;;;10342093;28;20224;-78
2022/03/22 14:06:34;;;;;;;8.35;7.60;;;;;;;;;;10338280;28;20279;-76
2022/03/22 14:11:35;;;;;;;8.32;7.65;;;;;;;;;;10338526;28;20200;-76
2022/03/22 14:16:36;;;;;;;8.32;7.57;;;;;;;;;;10335957;28;20729;-79
2022/03/22 14:21:37;;;;;;;8.10;7.18;;;;;;;;;;10342439;28;20207;-80
2022/03/22 14:26:38;;;;;;;8.07;7.50;;;;;;;;;;10347289;28;20200;-78
2022/03/22 14:31:39;;;;;;;7.57;7.03;;;;;;;;;;10347494;28;21000;-77
2022/03/22 14:36:40;;;;;;;7.30;6.68;;;;;;;;;;10347635;28;20244;-77
2022/03/22 14:41:41;;;;;;;7.35;6.85;;;;;;;;;;10378630;28;20232;-76
2022/03/22 14:46:43;;;;;;;8.00;7.28;;;;;;;;;;10348846;28;20201;-76
2022/03/22 15:02:26;;;;;;;7.38;6.97;;;;;;;;;;10349506;28;20209;-76
2022/03/22 15:07:28;;;;;;;6.85;6.25;;;;;;;;;;10349416;28;20197;-77
2022/03/22 15:12:29;;;;;;;8.50;7.47;;;;;;;;;;10347119;28;20299;-78
2022/03/22 15:17:30;;;;;;;8.15;7.50;;;;;;;;;;10344554;28;20193;-77
2022/03/22 15:22:31;;;;;;;7.45;6.85;;;;;;;;;;10349462;28;20204;-78
2022/03/22 15:27:32;;;;;;;8.48;7.70;;;;;;;;;;10350103;28;20196;-76
2022/03/22 15:32:33;;;;;;;7.68;6.97;;;;;;;;;;10347225;28;20213;-78
2022/03/22 15:37:34;;;;;;;8.73;8.00;;;;;;;;;;10340739;28;20690;-78
2022/03/22 15:42:36;;;;;;;8.10;7.30;;;;;;;;;;10342910;28;20225;-78
2022/03/22 15:47:39;;;;;;;8.73;7.97;;;;;;;;;;10343819;28;20287;-78
2022/03/22 15:52:40;;;;;;;7.82;7.10;;;;;;;;;;10342876;28;20213;-78
2022/03/22 15:57:41;;;;;;;8.15;7.30;;;;;;;;;;10346019;28;20263;-77
2022/03/22 16:02:44;;;;;;;8.05;7.20;;;;;;;;;;10346053;28;20236;-77
2022/03/22 16:07:45;;;;;;;8.13;7.53;;;;;;;;;;10341929;28;20212;-78
2022/03/22 16:12:46;;;;;;;8.32;7.43;;;;;;;;;;10344947;28;20208;-77
2022/03/22 16:17:47;;;;;;;10.82;7.85;;;;;;;;;;10338833;28;20231;-78
2022/03/22 16:22:48;;;;;;;7.45;6.90;;;;;;;;;;10348632;28;20311;-77
2022/03/22 16:27:50;;;;;;;7.22;6.65;;;;;;;;;;10346568;28;20204;-78
2022/03/22 16:38:11;;;;;;;6.50;6.00;;;;;;;;;;10340260;28;20571;-79
2022/03/22 16:43:14;;;;;;;6.93;6.22;;;;;;;;;;10373839;28;20223;-77
2022/03/22 16:48:16;;;;;;;6.80;6.30;;;;;;;;;;10344331;28;20232;-78
2022/03/22 16:53:21;;;;;;;7.40;6.65;;;;;;;;;;10348218;28;20216;-79
2022/03/22 16:58:23;;;;;;;6.88;6.10;;;;;;;;;;10341588;28;20684;-79
2022/03/22 17:03:24;;;;;;;6.88;6.20;;;;;;;;;;10345413;28;20221;-79
2022/03/22 17:08:26;;;;;;;7.43;6.88;;;;;;;;;;10339503;28;20567;-79
2022/03/22 17:13:28;;;;;;;7.10;6.53;;;;;;;;;;10343508;28;20650;-79
2022/03/22 17:18:29;;;;;;;8.13;6.95;;;;;;;;;;10340449;28;20193;-78
2022/03/22 17:23:30;;;;;;;7.50;6.80;;;;;;;;;;10342717;28;20220;-79
2022/03/22 17:28:31;;;;;;;7.35;6.78;;;;;;;;;;10342507;28;20290;-78
2022/03/22 17:33:33;;;;;;;8.45;7.43;;;;;;;;;;10339897;28;20252;-78
2022/03/22 17:38:35;;;;;;;8.20;7.43;;;;;;;;;;10339985;28;20196;-78
2022/03/22 17:43:36;;;;;;;9.02;8.07;;;;;;;;;;10340765;28;20220;-79
2022/03/22 17:48:38;;;;;;;9.02;8.23;;;;;;;;;;10340808;28;20206;-79
2022/03/22 17:53:39;;;;;;;9.10;7.78;;;;;;;;;;10343212;28;20220;-79
2022/03/22 17:58:41;;;;;;;10.77;9.60;;;;;;;;;;10351817;28;20726;-77
2022/03/22 18:03:42;;;;;;;17.80;11.93;;;;;;;;;;10348395;28;20216;-78
2022/03/22 18:08:43;;;;;;;25.35;14.13;;;;;;;;;;10345412;28;20193;-78
2022/03/22 18:13:44;;;;;;;29.13;15.25;;;;;;;;;;10347932;28;20207;-79
2022/03/22 18:18:45;;;;;;;21.40;13.20;;;;;;;;;;10351612;28;20254;-79
2022/03/22 18:23:46;;;;;;;22.67;13.25;;;;;;;;;;10350378;28;20215;-78
2022/03/22 18:28:48;;;;;;;21.13;12.27;;;;;;;;;;10347321;28;20290;-78
2022/03/22 18:33:49;;;;;;;15.90;11.00;;;;;;;;;;10346052;28;20234;-78
2022/03/22 18:38:50;;;;;;;16.65;10.98;;;;;;;;;;10343573;28;20672;-78
2022/03/22 18:43:51;;;;;;;14.65;9.98;;;;;;;;;;10380250;28;20227;-78
2022/03/22 18:48:52;;;;;;;11.70;9.15;;;;;;;;;;10343291;28;20196;-78
2022/03/22 18:53:53;;;;;;;13.05;9.00;;;;;;;;;;10348804;28;20900;-77
2022/03/22 18:58:54;;;;;;;14.65;9.57;;;;;;;;;;10351667;28;20440;-78
2022/03/22 19:03:56;;;;;;;10.75;7.90;;;;;;;;;;10344743;28;20334;-78
2022/03/22 19:08:58;;;;;;;13.07;9.13;;;;;;;;;;10345094;28;20219;-77
2022/03/22 19:13:59;;;;;;;12.30;9.20;;;;;;;;;;10348236;28;20208;-77
2022/03/22 19:19:00;;;;;;;12.02;9.85;;;;;;;;;;10347039;28;20668;-76
2022/03/22 19:24:01;;;;;;;16.73;11.40;;;;;;;;;;10353789;28;20712;-77
2022/03/22 19:29:04;;;;;;;15.07;10.50;;;;;;;;;;10349164;28;20207;-77
2022/03/22 19:34:05;;;;;;;22.30;10.88;;;;;;;;;;10345909;28;20239;-76
2022/03/22 19:39:06;;;;;;;18.60;11.25;;;;;;;;;;10349384;28;20212;-76
2022/03/22 19:44:08;;;;;;;15.02;10.15;;;;;;;;;;10344685;28;20243;-75
2022/03/22 19:49:10;;;;;;;13.98;9.48;;;;;;;;;;10349510;28;20235;-77
2022/03/22 19:54:12;;;;;;;12.02;9.65;;;;;;;;;;10345787;28;20237;-76
2022/03/22 19:59:14;;;;;;;17.35;9.90;;;;;;;;;;10350414;28;20204;-76
2022/03/22 20:04:15;;;;;;;13.98;9.32;;;;;;;;;;10343290;28;20239;-77
2022/03/22 20:09:16;;;;;;;14.55;9.10;;;;;;;;;;10345854;28;20316;-76
2022/03/22 20:14:17;;;;;;;18.40;10.05;;;;;;;;;;10342194;28;20299;-78
2022/03/22 20:19:19;;;;;;;15.80;10.10;;;;;;;;;;10337902;28;20188;-78
2022/03/22 20:24:22;;;;;;;12.73;9.32;;;;;;;;;;10344871;28;20655;-77
2022/03/22 20:29:23;;;;;;;16.50;10.35;;;;;;;;;;10350697;28;20208;-76
2022/03/22 20:34:25;;;;;;;16.95;9.40;;;;;;;;;;10345825;28;20236;-75
2022/03/22 20:39:26;;;;;;;11.88;9.90;;;;;;;;;;10346422;28;20259;-74
2022/03/22 20:44:28;;;;;;;15.10;10.77;;;;;;;;;;10373376;28;20200;-75
2022/03/22 20:49:29;;;;;;;24.73;11.63;;;;;;;;;;10374423;28;20228;-78
2022/03/22 20:54:30;;;;;;;14.77;10.25;;;;;;;;;;10344991;28;20213;-79
2022/03/22 20:59:32;;;;;;;20.30;12.68;;;;;;;;;;10343660;28;20208;-75
2022/03/22 21:04:33;;;;;;;17.67;12.13;;;;;;;;;;10348094;28;20208;-77
2022/03/22 21:09:34;;;;;;;35.17;15.73;;;;;;;;;;10345732;28;20283;-75
2022/03/22 21:14:35;;;;;;;23.65;13.05;;;;;;;;;;10341915;28;20234;-77
2022/03/22 21:19:37;;;;;;;21.33;12.90;;;;;;;;;;10342184;28;20297;-78
2022/03/22 21:24:38;;;;;;;21.60;13.48;;;;;;;;;;10339247;28;20838;-76
2022/03/22 21:29:39;;;;;;;21.73;12.90;;;;;;;;;;10340758;28;20581;-76
2022/03/22 21:34:41;;;;;;;27.58;13.63;;;;;;;;;;10340319;28;20220;-76
2022/03/22 21:39:42;;;;;;;25.83;16.52;;;;;;;;;;10334517;28;20298;-76
2022/03/22 21:44:45;;;;;;;28.70;15.55;;;;;;;;;;10332938;28;20212;-75
2022/03/22 21:49:46;;;;;;;26.30;15.68;;;;;;;;;;10336342;28;20189;-76
2022/03/22 21:54:47;;;;;;;25.80;15.60;;;;;;;;;;10333698;28;20326;-76
2022/03/22 21:59:49;;;;;;;27.85;15.50;;;;;;;;;;10337128;28;20673;-76
2022/03/22 22:04:50;;;;;;;22.83;13.68;;;;;;;;;;10341294;28;20286;-76
2022/03/22 22:09:51;;;;;;;23.90;14.52;;;;;;;;;;10338340;28;20219;-76
2022/03/22 22:14:52;;;;;;;22.65;14.30;;;;;;;;;;10335859;28;20355;-76
2022/03/22 22:19:53;;;;;;;21.60;13.82;;;;;;;;;;10336587;28;20337;-76
2022/03/22 22:24:54;;;;;;;21.00;14.15;;;;;;;;;;10337936;28;20212;-76
2022/03/22 22:29:55;;;;;;;31.60;14.07;;;;;;;;;;10341304;28;20220;-76
2022/03/22 22:34:56;;;;;;;20.23;13.25;;;;;;;;;;10337894;28;20255;-76
2022/03/22 22:39:57;;;;;;;29.77;13.13;;;;;;;;;;10340784;28;20716;-76
2022/03/22 22:44:58;;;;;;;21.90;13.68;;;;;;;;;;10342570;28;20193;-76
2022/03/22 22:50:02;;;;;;;29.05;13.30;;;;;;;;;;10343473;28;20209;-75
2022/03/22 22:55:04;;;;;;;28.23;13.52;;;;;;;;;;10349890;28;20211;-76
2022/03/22 23:00:06;;;;;;;24.88;13.65;;;;;;;;;;10351314;28;20731;-76
2022/03/22 23:05:07;;;;;;;19.65;13.05;;;;;;;;;;10344008;28;20217;-76
2022/03/22 23:10:09;;;;;;;19.50;13.43;;;;;;;;;;10346186;28;20200;-75
2022/03/22 23:15:15;;;;;;;23.63;13.48;;;;;;;;;;10343793;28;20247;-75
2022/03/22 23:20:16;;;;;;;29.13;13.02;;;;;;;;;;10345186;28;20205;-76
2022/03/22 23:25:17;;;;;;;23.63;12.82;;;;;;;;;;10345550;28;20328;-76
2022/03/22 23:30:18;;;;;;;23.63;12.45;;;;;;;;;;10344504;28;20203;-75
2022/03/22 23:35:19;;;;;;;23.35;13.35;;;;;;;;;;10339339;28;20229;-76
2022/03/22 23:40:20;;;;;;;22.98;12.25;;;;;;;;;;10341485;28;20228;-76
2022/03/22 23:45:22;;;;;;;18.67;11.55;;;;;;;;;;10340074;28;20619;-76
2022/03/22 23:50:23;;;;;;;16.10;10.90;;;;;;;;;;10339617;28;20201;-76
2022/03/22 23:55:24;;;;;;;19.85;11.13;;;;;;;;;;10342171;28;20693;-76
